Time;durP1;ratioP1;P1;durP2;ratioP2;P2;SDS_P1;SDS_P2;PMS_P1;PMS_P2;Temp;Humidity;BMP_temperature;BMP_pressure;BME280_temperature;BME280_humidity;BME280_pressure;Samples;Min_cycle;Max_cycle;Signal;HPM_P1;HPM_P2
2023/03/17 00:02:58;;;;;;;6.82;4.95;;;;;;;8.08;54.04;99896.78;10414359;28;20053;-64
2023/03/17 00:08:18;;;;;;;5.35;4.63;;;;;;;8.14;54.26;99910.41;10397298;28;20048;-67
2023/03/17 00:13:19;;;;;;;5.97;4.97;;;;;;;8.09;54.42;99915.22;10412638;28;20412;-69
2023/03/17 00:18:22;;;;;;;5.32;4.88;;;;;;;8.09;54.44;99909.91;10411969;28;20071;-64
2023/03/17 00:23:24;;;;;;;5.25;4.75;;;;;;;8.11;54.52;99901.84;10414180;28;20199;-69
2023/03/17 00:28:26;;;;;;;5.65;5.05;;;;;;;8.15;54.40;99905.94;10402631;28;20057;-65
2023/03/17 00:33:32;;;;;;;5.38;4.53;;;;;;;8.10;54.31;99894.84;10414384;28;20150;-67
2023/03/17 00:38:33;;;;;;;5.70;5.13;;;;;;;8.04;54.21;99890.84;10412631;28;20037;-68
2023/03/17 00:43:35;;;;;;;7.03;4.90;;;;;;;7.96;54.43;99888.78;10415288;28;20057;-65
2023/03/17 00:48:37;;;;;;;5.95;5.35;;;;;;;8.00;54.46;99884.09;10413407;28;20056;-67
2023/03/17 00:53:39;;;;;;;5.53;5.03;;;;;;;7.96;54.42;99887.94;10412713;28;20048;-64
2023/03/17 00:58:41;;;;;;;5.78;5.20;;;;;;;7.93;54.24;99883.72;10399767;28;20052;-68
2023/03/17 01:03:43;;;;;;;5.68;5.00;;;;;;;7.89;54.63;99895.50;10411996;28;20053;-66
2023/03/17 01:08:45;;;;;;;4.65;4.25;;;;;;;7.85;54.58;99880.81;10412169;28;20162;-68
2023/03/17 01:13:47;;;;;;;5.53;4.82;;;;;;;7.88;54.52;99871.75;10408376;28;20075;-65
2023/03/17 01:18:48;;;;;;;6.60;4.80;;;;;;;7.83;54.77;99865.97;10412743;28;20249;-65
2023/03/17 01:23:52;;;;;;;5.65;5.13;;;;;;;7.83;54.68;99858.84;10397492;28;20087;-66
2023/03/17 01:28:53;;;;;;;7.55;5.28;;;;;;;7.76;54.49;99834.63;10413812;28;20051;-68
2023/03/17 01:33:55;;;;;;;5.82;5.05;;;;;;;7.83;54.39;99845.59;10415944;28;20432;-67
2023/03/17 01:38:57;;;;;;;5.05;4.55;;;;;;;7.83;54.55;99850.06;10393122;28;20045;-67
2023/03/17 01:43:58;;;;;;;5.50;4.90;;;;;;;7.85;54.65;99833.09;10411913;28;21015;-67
2023/03/17 01:49:13;;;;;;;6.00;5.30;;;;;;;7.82;54.82;99830.69;10390916;28;20040;-68
2023/03/17 01:54:36;;;;;;;5.95;4.95;;;;;;;7.81;54.84;99830.78;10412669;28;20102;-67
2023/03/17 01:59:45;;;;;;;7.93;5.13;;;;;;;7.74;55.00;99820.66;10415608;28;20044;-68
2023/03/17 02:04:50;;;;;;;6.93;5.57;;;;;;;7.72;55.24;99822.56;10425262;28;20099;-67
2023/03/17 02:09:54;;;;;;;6.50;5.10;;;;;;;7.69;55.41;99814.03;10418741;28;20049;-67
2023/03/17 02:14:57;;;;;;;4.97;4.37;;;;;;;7.59;55.59;99801.44;10423131;28;20083;-68
2023/03/17 02:20:17;;;;;;;5.60;4.50;;;;;;;7.65;55.50;99818.69;10423992;28;20048;-68
2023/03/17 02:25:20;;;;;;;6.18;4.75;;;;;;;7.61;55.54;99801.34;10392820;28;20060;-67
2023/03/17 02:30:23;;;;;;;5.50;4.97;;;;;;;7.61;55.05;99801.34;10394336;28;20703;-67
2023/03/17 02:35:24;;;;;;;5.18;4.28;;;;;;;7.63;55.34;99815.31;10411875;28;20067;-68
2023/03/17 02:40:26;;;;;;;5.72;4.18;;;;;;;7.60;55.33;99820.84;10388719;28;20124;-67
2023/03/17 02:45:27;;;;;;;6.20;5.60;;;;;;;7.54;55.59;99813.38;10415310;28;20072;-67
2023/03/17 02:50:43;;;;;;;6.75;4.63;;;;;;;7.53;55.33;99801.09;10329087;28;20709;-67
2023/03/17 02:55:44;;;;;;;5.32;4.82;;;;;;;7.53;55.52;99783.38;10339464;28;20054;-68
2023/03/17 03:00:46;;;;;;;6.28;4.97;;;;;;;7.48;55.57;99772.28;10307878;28;20070;-68
2023/03/17 03:05:48;;;;;;;5.10;4.53;;;;;;;7.49;55.68;99779.28;10303043;28;20046;-68
2023/03/17 03:10:49;;;;;;;4.78;4.30;;;;;;;7.47;55.80;99786.50;10321348;28;20046;-67
2023/03/17 03:15:50;;;;;;;4.88;4.45;;;;;;;7.40;56.35;99788.75;10320104;28;20042;-67
2023/03/17 03:20:52;;;;;;;5.28;4.47;;;;;;;7.28;56.28;99787.03;10375943;28;20060;-68
2023/03/17 03:25:53;;;;;;;5.28;4.78;;;;;;;7.27;56.61;99790.63;10409816;28;20063;-67
2023/03/17 03:30:55;;;;;;;6.20;4.50;;;;;;;7.22;56.38;99787.47;10413957;28;20161;-69
2023/03/17 03:35:56;;;;;;;5.30;4.78;;;;;;;7.19;56.77;99777.09;10417808;28;20052;-68
2023/03/17 03:40:58;;;;;;;6.10;4.75;;;;;;;7.17;56.41;99779.88;10391032;28;20048;-68
2023/03/17 03:45:59;;;;;;;5.43;4.47;;;;;;;7.18;56.33;99786.03;10416800;28;20107;-70
2023/03/17 03:51:01;;;;;;;5.15;4.60;;;;;;;7.11;56.69;99784.78;10400085;28;20048;-68
2023/03/17 03:56:03;;;;;;;6.43;4.78;;;;;;;7.10;56.74;99783.09;10414947;28;20048;-69
2023/03/17 04:01:06;;;;;;;5.10;4.65;;;;;;;7.04;56.93;99772.00;10412657;28;20053;-67
2023/03/17 04:06:07;;;;;;;4.70;4.30;;;;;;;7.05;56.73;99759.59;10415450;28;20051;-68
2023/03/17 04:11:09;;;;;;;5.22;4.30;;;;;;;6.87;56.86;99752.03;10393779;28;20087;-66
2023/03/17 04:16:11;;;;;;;5.38;4.70;;;;;;;6.95;57.58;99779.75;10399428;28;20704;-68
2023/03/17 04:21:12;;;;;;;5.00;4.18;;;;;;;6.94;57.10;99781.56;10391338;28;20073;-65
2023/03/17 04:26:16;;;;;;;6.20;5.20;;;;;;;6.92;57.47;99766.75;10414522;28;20049;-67
2023/03/17 04:31:17;;;;;;;5.65;4.38;;;;;;;6.89;57.56;99762.50;10410516;28;20053;-67
2023/03/17 04:36:21;;;;;;;5.35;4.85;;;;;;;6.83;57.67;99749.75;10396743;28;20048;-67
2023/03/17 04:41:22;;;;;;;6.65;4.97;;;;;;;6.81;57.76;99767.53;10409774;28;20393;-68
2023/03/17 04:46:23;;;;;;;5.68;4.50;;;;;;;6.73;58.15;99771.56;10418226;28;20054;-67
2023/03/17 04:51:25;;;;;;;5.85;4.70;;;;;;;6.73;58.17;99768.94;10414728;28;20057;-68
2023/03/17 04:56:27;;;;;;;5.55;4.55;;;;;;;6.65;58.10;99752.78;10400202;28;20087;-67
2023/03/17 05:01:32;;;;;;;;;;;;;;;6.64;58.40;99766.13;10406785;28;20115;-65
2023/03/17 05:06:33;;;;;;;5.47;4.97;;;;;;;6.64;58.39;99795.22;10437046;28;19955;-67
2023/03/17 05:11:35;;;;;;;6.07;5.13;;;;;;;6.68;58.24;99788.72;10450108;28;20045;-68
2023/03/17 05:16:36;;;;;;;6.13;4.72;;;;;;;6.63;58.19;99775.84;10439836;28;20141;-68
2023/03/17 05:21:37;;;;;;;5.30;4.50;;;;;;;6.61;58.36;99785.69;10430047;28;20057;-67
2023/03/17 05:26:39;;;;;;;6.22;4.50;;;;;;;6.55;58.28;99779.03;10429828;28;20048;-67
2023/03/17 05:31:41;;;;;;;5.45;4.95;;;;;;;6.53;58.53;99795.94;10373802;28;20186;-68
2023/03/17 05:36:43;;;;;;;7.35;6.35;;;;;;;6.52;58.94;99791.63;10421967;28;20073;-67
2023/03/17 05:41:44;;;;;;;5.47;4.95;;;;;;;6.50;58.91;99802.31;10420839;28;20140;-67
2023/03/17 05:46:46;;;;;;;7.20;5.32;;;;;;;6.50;58.88;99812.03;10396725;28;20048;-67
2023/03/17 05:51:47;;;;;;;5.70;5.10;;;;;;;6.50;58.90;99819.97;10397385;28;20118;-67
2023/03/17 05:56:49;;;;;;;6.07;5.43;;;;;;;6.48;59.10;99813.97;10410245;28;20059;-67
2023/03/17 06:01:51;;;;;;;7.55;5.40;;;;;;;6.46;59.19;99802.66;10401105;28;20139;-67
2023/03/17 06:06:52;;;;;;;6.55;5.90;;;;;;;6.48;59.24;99803.38;10410998;28;20063;-68
2023/03/17 06:11:54;;;;;;;7.90;7.10;;;;;;;6.51;59.24;99797.88;10414198;28;20408;-68
2023/03/17 06:16:55;;;;;;;6.38;5.78;;;;;;;6.58;58.86;99788.56;10414210;28;20049;-70
2023/03/17 06:21:57;;;;;;;6.15;5.53;;;;;;;6.67;58.90;99787.88;10419358;28;21081;-68
2023/03/17 06:26:58;;;;;;;7.75;5.40;;;;;;;6.82;58.53;99795.69;10413277;28;20052;-69
2023/03/17 06:32:00;;;;;;;8.27;5.93;;;;;;;6.97;58.00;99789.28;10390530;28;20084;-69
2023/03/17 06:37:20;;;;;;;6.28;5.60;;;;;;;7.13;57.15;99793.44;10421183;28;20087;-68
2023/03/17 06:42:21;;;;;;;6.30;5.65;;;;;;;7.12;57.13;99782.03;10422598;28;20057;-70
2023/03/17 06:47:23;;;;;;;7.10;5.70;;;;;;;7.33;57.30;99789.34;10436466;28;20057;-70
2023/03/17 06:52:26;;;;;;;6.07;5.15;;;;;;;7.48;56.31;99803.25;10411733;28;20707;-70
2023/03/17 06:57:27;;;;;;;6.40;5.50;;;;;;;7.48;55.91;99798.78;10414326;28;20059;-73
2023/03/17 07:02:29;;;;;;;5.78;5.18;;;;;;;7.64;55.77;99803.78;10408857;28;20061;-73
2023/03/17 07:07:31;;;;;;;15.75;7.10;;;;;;;7.79;55.48;99802.63;10415866;28;20613;-72
2023/03/17 07:12:33;;;;;;;21.70;7.68;;;;;;;7.96;55.00;99813.72;10392724;28;20106;-72
2023/03/17 07:17:34;;;;;;;8.55;6.22;;;;;;;8.09;55.02;99784.47;10414184;28;20048;-73
2023/03/17 07:22:35;;;;;;;8.45;6.85;;;;;;;8.37;53.75;99800.88;10399987;28;20059;-71
2023/03/17 07:27:37;;;;;;;8.80;5.85;;;;;;;8.57;53.90;99801.97;10412532;28;20050;-72
2023/03/17 07:32:39;;;;;;;8.65;6.93;;;;;;;8.67;53.23;99781.72;10413916;28;21409;-69
2023/03/17 07:37:41;;;;;;;6.93;6.22;;;;;;;8.84;53.29;99789.16;10413755;28;20053;-72
2023/03/17 07:42:44;;;;;;;10.95;6.28;;;;;;;9.02;52.93;99791.28;10407919;28;20083;-71
2023/03/17 07:47:45;;;;;;;8.05;6.75;;;;;;;9.02;53.13;99778.88;10406707;28;20107;-72
2023/03/17 07:52:48;;;;;;;6.65;5.90;;;;;;;9.26;52.75;99771.66;10385027;28;20053;-72
2023/03/17 07:57:49;;;;;;;7.50;6.80;;;;;;;9.36;52.03;99767.28;10377438;28;20144;-71
2023/03/17 08:02:51;;;;;;;5.60;5.00;;;;;;;9.63;51.53;99781.88;10384890;28;20066;-70
2023/03/17 08:08:11;;;;;;;7.63;6.03;;;;;;;9.98;51.34;99778.03;10381008;28;20163;-72
2023/03/17 08:13:13;;;;;;;77.03;14.57;;;;;;;10.20;49.96;99783.19;10382825;28;20147;-72
2023/03/17 08:18:14;;;;;;;6.22;5.30;;;;;;;10.32;49.79;99764.50;10388127;28;20089;-70
2023/03/17 08:23:17;;;;;;;5.95;5.38;;;;;;;10.54;49.01;99752.84;10408183;28;20123;-71
2023/03/17 08:28:19;;;;;;;5.35;4.85;;;;;;;10.66;48.83;99745.56;10408338;28;20125;-70
2023/03/17 08:33:23;;;;;;;5.05;4.45;;;;;;;11.04;48.19;99749.28;10409932;28;20045;-72
2023/03/17 08:38:24;;;;;;;6.40;5.18;;;;;;;11.32;46.42;99740.47;10407993;28;20087;-68
2023/03/17 08:43:27;;;;;;;5.40;4.90;;;;;;;11.59;46.58;99743.38;10390801;28;20083;-70
2023/03/17 08:48:29;;;;;;;4.93;4.43;;;;;;;11.84;46.52;99757.94;10408614;28;20154;-72
2023/03/17 08:53:33;;;;;;;4.97;4.47;;;;;;;11.86;44.95;99750.66;10405831;28;20541;-70
2023/03/17 08:58:38;;;;;;;4.40;3.97;;;;;;;12.18;45.52;99754.78;10390937;28;20547;-69
2023/03/17 09:03:41;;;;;;;7.43;4.80;;;;;;;12.75;44.56;99748.47;10406678;28;20562;-69
2023/03/17 09:08:46;;;;;;;5.18;4.07;;;;;;;13.02;42.42;99748.41;10383878;28;20072;-70
2023/03/17 09:13:48;;;;;;;4.40;4.00;;;;;;;13.40;42.98;99741.09;10407166;28;20056;-70
2023/03/17 09:18:50;;;;;;;6.07;3.90;;;;;;;13.66;42.45;99745.69;10405923;28;20128;-70
2023/03/17 09:23:52;;;;;;;5.53;3.58;;;;;;;13.83;41.26;99743.13;10387492;28;20298;-70
2023/03/17 09:28:54;;;;;;;4.03;3.63;;;;;;;13.96;41.43;99731.00;10401905;28;20049;-70
2023/03/17 09:33:55;;;;;;;5.72;3.95;;;;;;;13.98;41.11;99712.09;10405749;28;20059;-70
2023/03/17 09:38:57;;;;;;;6.88;4.15;;;;;;;14.09;40.79;99713.66;10406319;28;20139;-72
2023/03/17 09:44:24;;;;;;;5.05;3.53;;;;;;;14.20;40.43;99716.06;10384004;28;20144;-71
2023/03/17 09:49:41;;;;;;;3.38;3.08;;;;;;;14.34;40.28;99703.91;10406125;28;20044;-72
2023/03/17 09:54:45;;;;;;;4.32;3.83;;;;;;;14.47;39.67;99706.97;10404552;28;20569;-72
2023/03/17 09:59:52;;;;;;;3.97;3.13;;;;;;;14.63;40.30;99700.00;10383112;28;20052;-70
2023/03/17 10:04:54;;;;;;;10.02;5.55;;;;;;;14.64;39.50;99691.81;10397331;28;20049;-72
2023/03/17 10:10:01;;;;;;;4.65;3.72;;;;;;;14.86;40.28;99694.84;10370098;28;20064;-70
2023/03/17 10:15:12;;;;;;;6.05;3.55;;;;;;;15.09;39.43;99695.06;10380046;28;20402;-71
2023/03/17 10:20:24;;;;;;;5.53;4.40;;;;;;;15.37;38.81;99692.91;10397637;28;20162;-70
2023/03/17 10:25:32;;;;;;;4.60;3.60;;;;;;;15.55;38.56;99694.53;10397975;28;20053;-69
2023/03/17 10:30:34;;;;;;;3.83;3.35;;;;;;;15.50;38.55;99687.00;10399587;28;20369;-71
2023/03/17 10:35:38;;;;;;;4.47;3.25;;;;;;;15.59;38.65;99689.69;10382480;28;20153;-69
2023/03/17 10:40:40;;;;;;;;;;;;;;;15.84;38.16;99677.09;10384786;28;20095;-70
2023/03/17 10:46:07;;;;;;;3.33;2.95;;;;;;;16.33;37.06;99673.38;10384224;28;20410;-70
2023/03/17 10:51:09;;;;;;;4.35;3.15;;;;;;;17.02;35.54;99664.59;10400601;28;20510;-73
2023/03/17 10:56:21;;;;;;;3.55;2.88;;;;;;;17.67;34.83;99680.16;10405325;28;20305;-70
2023/03/17 11:01:28;;;;;;;4.18;2.58;;;;;;;17.80;34.55;99667.91;10400850;28;20064;-72
2023/03/17 11:06:35;;;;;;;4.13;3.05;;;;;;;18.09;34.12;99671.66;10398320;28;20047;-71
2023/03/17 11:11:49;;;;;;;6.15;3.65;;;;;;;18.33;33.56;99665.97;10397766;28;20045;-72
2023/03/17 11:16:53;;;;;;;5.22;2.83;;;;;;;18.43;33.66;99662.97;10402716;28;20393;-70
2023/03/17 11:22:08;;;;;;;4.07;2.63;;;;;;;18.93;32.74;99662.28;10407255;28;20053;-70
2023/03/17 11:27:14;;;;;;;2.22;2.03;;;;;;;20.35;31.11;99655.81;10386041;28;20525;-71
2023/03/17 11:32:40;;;;;;;3.97;2.88;;;;;;;22.11;27.82;99648.41;10407756;28;20067;-71
2023/03/17 11:37:54;;;;;;;4.93;2.75;;;;;;;22.78;27.04;99642.69;10385723;28;20051;-71
2023/03/17 11:43:34;;;;;;;3.05;2.33;;;;;;;21.82;28.59;99645.16;10388096;28;20926;-71
2023/03/17 11:48:39;;;;;;;2.88;2.55;;;;;;;21.00;29.42;99623.78;10400798;28;20420;-71
2023/03/17 11:53:55;;;;;;;5.47;2.42;;;;;;;20.17;30.51;99632.03;10407289;28;20420;-71
2023/03/17 11:59:27;;;;;;;4.63;2.63;;;;;;;20.26;30.29;99620.03;10390910;28;20504;-70
2023/03/17 12:04:52;;;;;;;2.33;1.98;;;;;;;20.56;30.66;99608.06;10402515;28;20240;-70
2023/03/17 12:10:03;;;;;;;3.80;2.38;;;;;;;20.55;29.82;99596.44;10397084;28;20053;-70
2023/03/17 12:15:15;;;;;;;2.25;2.00;;;;;;;20.43;30.33;99598.88;10398401;28;20041;-71
2023/03/17 12:20:25;;;;;;;5.15;2.20;;;;;;;20.02;31.33;99588.97;10402073;28;22130;-70
2023/03/17 12:25:43;;;;;;;3.25;2.17;;;;;;;19.62;32.89;99583.31;10405432;28;20423;-72
2023/03/17 12:30:54;;;;;;;2.80;2.20;;;;;;;19.19;32.09;99567.31;10399676;28;20139;-74
2023/03/17 12:35:58;;;;;;;5.03;3.03;;;;;;;18.90;33.41;99580.75;10397855;28;20059;-71
2023/03/17 12:41:37;;;;;;;4.30;2.00;;;;;;;18.63;34.02;99578.81;10394217;28;20059;-72
2023/03/17 12:46:59;;;;;;;4.05;2.15;;;;;;;18.24;34.38;99569.28;10383349;28;20130;-69
2023/03/17 12:52:09;;;;;;;3.33;2.40;;;;;;;17.94;35.19;99554.03;10399591;28;20057;-71
2023/03/17 12:57:20;;;;;;;3.00;2.40;;;;;;;17.94;35.69;99562.13;10401806;28;20118;-69
2023/03/17 13:02:28;;;;;;;5.50;2.40;;;;;;;17.93;35.81;99551.53;10400627;28;20045;-69
2023/03/17 13:07:35;;;;;;;2.13;1.80;;;;;;;17.82;35.80;99552.84;10397747;28;20152;-69
2023/03/17 13:12:43;;;;;;;2.80;1.88;;;;;;;17.67;36.15;99545.59;10394490;28;20504;-71
2023/03/17 13:17:44;;;;;;;4.00;1.85;;;;;;;17.59;36.94;99548.38;10396437;28;20053;-71
2023/03/17 13:23:13;;;;;;;6.07;1.63;;;;;;;17.47;36.74;99542.66;10395901;28;20308;-69
2023/03/17 13:28:22;;;;;;;5.05;2.20;;;;;;;17.40;36.82;99535.47;10397638;28;20458;-69
2023/03/17 13:33:30;;;;;;;2.47;1.83;;;;;;;17.42;36.41;99526.22;10395604;28;21787;-68
2023/03/17 13:38:58;;;;;;;7.53;2.83;;;;;;;17.61;36.39;99524.81;10396053;28;21163;-70
2023/03/17 13:44:25;;;;;;;4.22;2.30;;;;;;;17.57;35.55;99528.91;10394063;28;20073;-70
2023/03/17 13:49:29;;;;;;;4.53;2.88;;;;;;;17.75;35.54;99519.59;10397629;28;20049;-70
2023/03/17 13:54:33;;;;;;;4.85;3.15;;;;;;;17.87;36.57;99514.56;10394934;28;20060;-68
2023/03/17 13:59:55;;;;;;;6.55;3.58;;;;;;;17.96;36.89;99502.69;10385662;28;20049;-69
2023/03/17 14:05:01;;;;;;;11.75;3.63;;;;;;;18.01;37.36;99509.19;10394665;28;20791;-72
2023/03/17 14:10:04;;;;;;;6.60;3.60;;;;;;;17.86;37.42;99511.03;10393418;28;20048;-70
2023/03/17 14:15:23;;;;;;;6.70;3.88;;;;;;;17.80;37.23;99496.47;10372051;28;20079;-70
2023/03/17 14:20:26;;;;;;;5.45;3.25;;;;;;;18.13;37.46;99496.03;10394195;28;20111;-72
2023/03/17 14:25:34;;;;;;;6.85;3.60;;;;;;;18.43;36.92;99492.41;10370495;28;20472;-72
2023/03/17 14:30:35;;;;;;;5.15;3.20;;;;;;;18.39;37.29;99494.66;10390993;28;20049;-71
2023/03/17 14:35:41;;;;;;;5.80;3.00;;;;;;;18.25;36.70;99493.66;10393079;28;20056;-71
2023/03/17 14:40:42;;;;;;;3.58;3.08;;;;;;;18.19;37.61;99480.97;10392783;28;20053;-70
2023/03/17 14:46:06;;;;;;;9.18;3.10;;;;;;;18.12;37.60;99480.91;10394103;28;20064;-68
2023/03/17 14:51:22;;;;;;;3.92;2.53;;;;;;;17.95;37.49;99472.22;10388999;28;20049;-70
2023/03/17 14:56:30;;;;;;;3.00;2.50;;;;;;;17.83;37.30;99465.66;10392212;28;20128;-70
2023/03/17 15:01:40;;;;;;;5.30;2.10;;;;;;;17.70;38.18;99457.41;10386986;28;20551;-69
2023/03/17 15:06:50;;;;;;;4.88;1.77;;;;;;;17.58;38.62;99449.84;10390707;28;20041;-70
2023/03/17 15:12:01;;;;;;;2.00;1.60;;;;;;;17.46;39.12;99451.38;10385956;28;20044;-73
2023/03/17 15:17:05;;;;;;;6.30;1.92;;;;;;;17.41;39.30;99448.38;10388051;28;20139;-71
2023/03/17 15:22:34;;;;;;;2.70;1.50;;;;;;;17.30;39.72;99441.63;10389885;28;20059;-72
2023/03/17 15:27:36;;;;;;;3.75;1.60;;;;;;;17.18;39.86;99440.44;10395655;28;20208;-71
2023/03/17 15:32:37;;;;;;;3.97;2.08;;;;;;;17.05;40.18;99438.41;10399609;28;20491;-71
2023/03/17 15:37:41;;;;;;;4.25;1.70;;;;;;;17.04;39.97;99425.97;10374558;28;20052;-73
2023/03/17 15:42:44;;;;;;;2.78;2.28;;;;;;;16.98;40.71;99421.34;10401072;28;20061;-71
2023/03/17 15:47:46;;;;;;;3.95;1.55;;;;;;;16.88;40.60;99425.13;10405029;28;20142;-69
2023/03/17 15:52:47;;;;;;;4.00;1.52;;;;;;;16.88;40.90;99438.56;10405467;28;20049;-70
2023/03/17 15:57:49;;;;;;;2.95;1.50;;;;;;;16.77;41.08;99431.78;10402042;28;20518;-73
2023/03/17 16:02:58;;;;;;;3.67;1.90;;;;;;;16.75;41.12;99439.19;10385958;28;20332;-68
2023/03/17 16:08:00;;;;;;;5.38;2.05;;;;;;;16.74;41.29;99442.06;10401382;28;20049;-70
2023/03/17 16:13:01;;;;;;;3.28;2.10;;;;;;;16.69;41.46;99439.09;10398658;28;20272;-71
2023/03/17 16:18:07;;;;;;;7.10;1.73;;;;;;;16.66;41.93;99455.56;10393841;28;20052;-69
2023/03/17 16:23:17;;;;;;;5.68;3.58;;;;;;;16.53;41.92;99456.19;10379324;28;20123;-70
2023/03/17 16:28:25;;;;;;;6.07;4.20;;;;;;;16.39;42.88;99466.72;10400540;28;20053;-67
2023/03/17 16:33:34;;;;;;;7.80;4.63;;;;;;;16.14;43.44;99474.13;10402540;28;20117;-68
2023/03/17 16:38:36;;;;;;;7.82;5.22;;;;;;;16.02;44.11;99470.19;10402299;28;20075;-71
2023/03/17 16:43:42;;;;;;;8.23;5.13;;;;;;;16.02;44.05;99470.19;10402623;28;20415;-70
2023/03/17 16:48:44;;;;;;;6.57;4.60;;;;;;;16.00;43.87;99467.69;10405358;28;20578;-69
2023/03/17 16:53:45;;;;;;;9.57;5.57;;;;;;;15.99;44.23;99470.53;10405609;28;20677;-70
2023/03/17 16:58:48;;;;;;;7.80;4.80;;;;;;;15.92;44.50;99469.59;10403985;28;20387;-73
2023/03/17 17:03:50;;;;;;;8.57;5.18;;;;;;;15.88;44.15;99477.13;10411675;28;20053;-70
2023/03/17 17:08:51;;;;;;;7.88;5.35;;;;;;;15.74;43.77;99471.47;10406384;28;20468;-73
2023/03/17 17:13:53;;;;;;;8.90;5.50;;;;;;;15.72;43.87;99478.88;10388644;28;20077;-70
2023/03/17 17:18:55;;;;;;;7.40;4.93;;;;;;;15.59;44.29;99467.03;10405980;28;20134;-71
2023/03/17 17:23:57;;;;;;;7.10;4.82;;;;;;;15.65;44.33;99487.81;10404119;28;20059;-67
2023/03/17 17:28:58;;;;;;;9.45;6.03;;;;;;;15.58;44.65;99481.47;10393393;28;20053;-69
2023/03/17 17:34:00;;;;;;;10.32;6.28;;;;;;;15.46;44.93;99471.13;10406142;28;20466;-72
2023/03/17 17:39:02;;;;;;;11.10;7.30;;;;;;;15.42;45.06;99477.84;10402908;28;20399;-70
2023/03/17 17:44:04;;;;;;;8.70;6.13;;;;;;;15.34;45.43;99476.03;10403012;28;20057;-68
2023/03/17 17:49:06;;;;;;;14.23;7.75;;;;;;;15.28;45.51;99467.84;10404294;28;20057;-69
2023/03/17 17:54:07;;;;;;;13.63;10.45;;;;;;;15.23;46.45;99470.22;10402920;28;20144;-71
2023/03/17 17:59:09;;;;;;;10.18;7.63;;;;;;;15.22;46.24;99468.53;10400400;28;20052;-67
2023/03/17 18:04:11;;;;;;;9.98;7.97;;;;;;;15.15;45.82;99482.63;10403102;28;20156;-68
2023/03/17 18:09:13;;;;;;;11.82;8.55;;;;;;;15.17;46.69;99488.63;10399455;28;20053;-71
2023/03/17 18:14:14;;;;;;;10.68;8.73;;;;;;;15.09;46.61;99499.41;10397971;28;20069;-71
2023/03/17 18:19:16;;;;;;;13.95;9.32;;;;;;;15.07;47.20;99500.56;10421500;28;20231;-72
2023/03/17 18:24:18;;;;;;;13.20;9.43;;;;;;;14.98;47.12;99511.31;10403566;28;20060;-68
2023/03/17 18:29:20;;;;;;;11.98;9.35;;;;;;;14.95;47.75;99508.97;10394470;28;21598;-70
2023/03/17 18:34:25;;;;;;;10.10;9.02;;;;;;;14.91;47.18;99512.19;10396163;28;20063;-69
2023/03/17 18:39:27;;;;;;;9.05;8.05;;;;;;;14.84;47.48;99498.59;10399095;28;20718;-71
2023/03/17 18:44:28;;;;;;;9.05;7.65;;;;;;;14.76;47.42;99498.63;10398350;28;20565;-69
2023/03/17 18:49:30;;;;;;;10.98;7.75;;;;;;;14.70;48.00;99505.50;10396121;28;20558;-68
2023/03/17 18:54:31;;;;;;;10.25;8.30;;;;;;;14.61;48.06;99495.78;10380415;28;20057;-69
2023/03/17 18:59:33;;;;;;;9.48;7.75;;;;;;;14.59;48.94;99505.78;10382933;28;20111;-68
2023/03/17 19:04:35;;;;;;;12.35;8.27;;;;;;;14.47;49.22;99492.75;10382214;28;20660;-72
2023/03/17 19:09:36;;;;;;;13.48;9.82;;;;;;;14.44;48.82;99506.47;10399429;28;20133;-73
2023/03/17 19:14:39;;;;;;;12.52;9.23;;;;;;;14.37;49.52;99513.50;10394372;28;20061;-72
2023/03/17 19:19:40;;;;;;;13.55;10.35;;;;;;;14.28;49.89;99504.59;10396247;28;20056;-68
2023/03/17 19:24:42;;;;;;;15.20;10.48;;;;;;;14.24;49.87;99502.44;10381620;28;20151;-73
2023/03/17 19:29:43;;;;;;;15.32;11.20;;;;;;;14.19;50.45;99505.59;10378401;28;20053;-71
2023/03/17 19:34:46;;;;;;;17.27;10.93;;;;;;;14.11;50.46;99495.72;10396722;28;20052;-71
2023/03/17 19:39:48;;;;;;;12.88;11.07;;;;;;;14.13;50.74;99506.28;10394082;28;20296;-70
2023/03/17 19:44:49;;;;;;;16.13;11.40;;;;;;;14.10;50.59;99515.44;10391043;28;20058;-68
2023/03/17 19:49:52;;;;;;;12.90;10.98;;;;;;;14.13;50.92;99523.16;10396635;28;20060;-69
2023/03/17 19:54:55;;;;;;;14.45;11.55;;;;;;;14.17;50.42;99533.53;10379191;28;20049;-69
2023/03/17 19:59:56;;;;;;;15.48;12.05;;;;;;;14.15;50.66;99525.66;10397938;28;20524;-68
2023/03/17 20:04:58;;;;;;;16.10;11.77;;;;;;;14.17;50.44;99528.19;10392051;28;20061;-68
2023/03/17 20:10:00;;;;;;;16.60;12.93;;;;;;;14.12;50.69;99545.56;10397784;28;20053;-72
2023/03/17 20:15:02;;;;;;;15.52;12.88;;;;;;;14.13;50.82;99546.41;10403000;28;20067;-69
2023/03/17 20:20:06;;;;;;;15.07;13.30;;;;;;;14.11;50.76;99545.72;10402285;28;20045;-68
2023/03/17 20:25:09;;;;;;;19.23;14.47;;;;;;;14.05;50.37;99557.94;10387124;28;20059;-66
2023/03/17 20:30:11;;;;;;;18.13;13.95;;;;;;;14.05;50.88;99557.94;10403837;28;20088;-68
2023/03/17 20:35:12;;;;;;;15.63;12.73;;;;;;;14.00;51.18;99554.06;10404037;28;20102;-71
2023/03/17 20:40:14;;;;;;;23.33;18.15;;;;;;;14.00;51.10;99562.91;10386675;28;20052;-71
2023/03/17 20:45:15;;;;;;;18.75;14.02;;;;;;;13.95;51.28;99550.03;10373260;28;20567;-71
2023/03/17 20:50:16;;;;;;;17.02;13.63;;;;;;;13.94;51.72;99558.22;10385918;28;20077;-71
2023/03/17 20:55:18;;;;;;;19.60;14.07;;;;;;;13.88;52.29;99556.19;10393346;28;20053;-71
2023/03/17 21:00:20;;;;;;;15.57;12.98;;;;;;;13.79;52.01;99534.75;10394599;28;20056;-70
2023/03/17 21:05:25;;;;;;;17.00;12.45;;;;;;;13.80;52.11;99540.97;10393960;28;20060;-70
2023/03/17 21:10:27;;;;;;;15.40;12.20;;;;;;;13.74;52.74;99545.13;10393614;28;20115;-71
2023/03/17 21:15:29;;;;;;;14.68;11.10;;;;;;;13.67;52.08;99549.44;10372937;28;20041;-71
2023/03/17 21:20:30;;;;;;;13.10;11.02;;;;;;;13.63;52.44;99548.09;10374086;28;20056;-70
2023/03/17 21:25:34;;;;;;;12.68;11.38;;;;;;;13.59;52.98;99536.03;10393447;28;20110;-71
2023/03/17 21:30:36;;;;;;;17.17;12.35;;;;;;;13.54;52.83;99533.00;10393810;28;20053;-71
2023/03/17 21:35:38;;;;;;;18.70;12.45;;;;;;;13.43;53.40;99526.09;10394527;28;20464;-72
2023/03/17 21:40:40;;;;;;;17.17;11.25;;;;;;;13.44;53.71;99527.78;10376178;28;20045;-70
2023/03/17 21:45:41;;;;;;;14.35;11.70;;;;;;;13.39;53.79;99538.09;10393453;28;20076;-71
2023/03/17 21:50:43;;;;;;;15.15;11.32;;;;;;;13.40;54.20;99558.50;10390435;28;20114;-70
2023/03/17 21:55:44;;;;;;;11.98;10.75;;;;;;;13.40;54.30;99542.44;10392163;28;20056;-71
2023/03/17 22:00:46;;;;;;;13.90;11.50;;;;;;;13.45;54.48;99548.19;10387521;28;20057;-70
2023/03/17 22:05:49;;;;;;;13.38;10.55;;;;;;;13.40;54.78;99548.63;10377498;28;20160;-70
2023/03/17 22:10:51;;;;;;;15.80;11.00;;;;;;;13.40;54.38;99561.16;10392582;28;20491;-70
2023/03/17 22:15:52;;;;;;;13.10;10.48;;;;;;;13.37;54.56;99559.63;10402257;28;20053;-71
2023/03/17 22:20:55;;;;;;;14.77;11.80;;;;;;;13.31;54.73;99554.06;10407246;28;20053;-69
2023/03/17 22:25:56;;;;;;;14.00;11.55;;;;;;;13.25;54.98;99559.03;10395117;28;20138;-70
2023/03/17 22:30:57;;;;;;;15.82;12.68;;;;;;;13.23;55.33;99557.53;10390613;28;20052;-70
2023/03/17 22:35:59;;;;;;;14.10;11.38;;;;;;;13.17;55.42;99563.50;10395069;28;20528;-69
2023/03/17 22:41:03;;;;;;;13.40;11.80;;;;;;;13.18;55.34;99575.84;10413769;28;20336;-70
2023/03/17 22:46:05;;;;;;;13.15;10.82;;;;;;;13.21;55.66;99581.75;10411793;28;20053;-69
2023/03/17 22:51:09;;;;;;;11.77;9.45;;;;;;;13.16;55.54;99583.22;10408569;28;20510;-71
2023/03/17 22:56:11;;;;;;;;;;;;;;;13.21;55.61;99575.53;10396821;28;20053;-67
2023/03/17 23:01:15;;;;;;;12.10;10.45;;;;;;;13.17;55.69;99575.03;10406874;28;20642;-69
2023/03/17 23:06:17;;;;;;;12.85;10.50;;;;;;;13.14;55.87;99579.88;10406141;28;20258;-68
2023/03/17 23:11:21;;;;;;;11.15;9.77;;;;;;;13.12;55.94;99584.50;10387744;28;20411;-69
2023/03/17 23:16:23;;;;;;;11.98;8.90;;;;;;;13.14;56.25;99598.56;10391514;28;20061;-66
2023/03/17 23:21:28;;;;;;;10.30;8.73;;;;;;;13.15;56.06;99609.09;10408045;28;20045;-68
2023/03/17 23:26:30;;;;;;;10.18;9.05;;;;;;;13.12;56.16;99619.25;10408159;28;20634;-67
2023/03/17 23:31:32;;;;;;;10.15;9.10;;;;;;;13.13;56.19;99623.59;10408684;28;20135;-67
2023/03/17 23:36:38;;;;;;;10.65;9.05;;;;;;;13.11;56.30;99622.94;10381784;28;20094;-69